Pleasant Lake, Wisconsin
Current Conditions -  °F | °C
As of 9:56 PM on Saturday 25 Oct 2014 (Local Time) from KY50 Reporting Station
Overcast Overcast  
Wind Chill: 44°   Ceiling: 100
Heat Index: 47°   Visibility: 10mi
Dew Point: 29°   Wind: 7mph
Humidity: 50%   Direction: 270°W
Pressure: 29.97"   Gusts: NA
Location:  44.0358°N, 89.5222°W
Report Text: KY50 260256Z AUTO 27006KT 10SM OVC001 08/M02 A2997 RMK AO2 TSNO 51012 T00831016 SLP148
Loading
Personal Weather Stations






























Interactive Weather Map
Tropical Storm Tracking
New forecast layout! Learn more

10-Day Weather Forecast

Advertisements
Track Severe Weather on mobile